EDT,Max TemperatureF,Mean TemperatureF,Min TemperatureF,Max Dew PointF,MeanDew PointF,Min DewpointF,Max Humidity, Mean Humidity, Min Humidity, Max Sea Level PressureIn, Mean Sea Level PressureIn, Min Sea Level PressureIn, Max VisibilityMiles, Mean VisibilityMiles, Min VisibilityMiles, Max Wind SpeedMPH, Mean Wind SpeedMPH, Max Gust SpeedMPH,PrecipitationIn, CloudCover, Events, WindDirDegrees
2013-7-1,75,70,68,72,70,68,100,97,91,30.15,30.06,30.00,10,6,2,12,8,22,0.04,8,Rain,215
2013-7-2,77,72,69,73,71,68,100,97,87,30.24,30.19,30.14,9,6,1,12,8,21,0.26,8,Rain,221
2013-7-3,81,74,69,73,72,70,100,93,82,30.25,30.23,30.20,10,7,0,15,8,24,0.00,7,Fog,229
2013-7-4,82,76,71,76,73,72,100,93,79,30.24,30.20,30.16,10,6,0,14,10,28,0.00,5,Fog,234
2013-7-5,86,78,71,75,73,71,100,88,72,30.18,30.14,30.09,10,9,6,12,8,24,0.00,1,,232
2013-7-6,88,80,72,76,74,71,100,85,69,30.10,30.05,29.99,10,9,7,13,7,25,0.00,0,,235
2013-7-7,88,80,72,76,73,69,100,85,57,30.03,29.99,29.95,10,9,6,9,4,,0.00,1,,232
2013-7-8,84,78,73,74,73,71,100,88,69,30.06,29.98,29.95,10,8,2,13,7,24,0.00,2,,227
2013-7-9,75,71,69,72,69,66,100,93,87,30.11,30.07,30.04,10,6,1,5,3,,0.04,8,Rain,66
2013-7-10,82,74,68,73,71,66,100,91,76,30.09,29.99,29.87,10,4,0,13,4,24,0.00,7,Fog,194
2013-7-11,75,73,71,73,72,69,97,94,90,29.92,29.87,29.84,10,4,1,12,8,22,0.26,8,Rain,225
2013-7-12,72,69,66,70,66,62,100,92,78,30.19,30.05,29.92,10,4,0,14,5,21,0.00,8,Fog,44
2013-7-13,77,72,66,69,67,64,100,91,76,30.32,30.28,30.19,10,5,0,8,5,,0.21,7,Fog-Rain,83
2013-7-14,82,76,69,74,72,69,100,90,74,30.31,30.28,30.22,10,6,0,7,3,,0.01,5,Fog,210
2013-7-15,88,80,73,74,72,70,93,79,55,30.20,30.16,30.12,10,9,6,7,2,,0.00,1,,210
2013-7-16,88,79,70,73,68,65,94,72,51,30.17,30.13,30.09,10,10,7,9,3,,0.01,1,,15
2013-7-17,86,76,70,71,67,65,90,76,58,30.20,30.15,30.06,10,10,8,9,4,,0.00,0,,172
2013-7-18,87,79,72,73,70,67,93,76,53,30.05,30.01,29.99,10,10,6,10,6,21,0.00,0,Rain,186
2013-7-19,87,78,71,77,74,70,100,88,72,29.98,29.91,29.81,5,3,0,15,8,25,0.00,4,Fog,221
2013-7-20,86,80,75,75,74,71,94,84,72,29.81,29.77,29.70,8,5,2,15,10,26,0.00,4,,226
2013-7-21,78,72,66,72,66,63,90,81,69,30.02,29.94,29.81,10,9,6,9,3,,0.02,4,Rain,97
2013-7-22,77,72,66,68,66,64,96,87,71,30.02,29.98,29.91,10,6,0,8,4,,0.00,4,Fog,98
2013-7-23,84,75,68,75,71,66,100,89,74,29.88,29.69,29.58,10,4,0,15,5,25,0.01,7,Fog,205
2013-7-24,88,80,73,74,71,62,94,81,59,29.90,29.68,29.59,10,7,2,10,5,17,0.00,5,Rain,223
2013-7-25,73,68,64,65,60,56,97,79,70,30.05,30.01,29.91,10,10,3,14,10,25,0.18,8,Rain,40
2013-7-26,68,65,64,66,64,62,96,94,90,30.03,29.92,29.85,10,4,1,16,10,25,1.85,8,Rain,18
2013-7-27,80,73,66,71,67,63,93,84,68,30.09,30.06,30.03,10,10,10,12,6,21,0.21,1,,228
2013-7-28,79,73,68,72,69,66,100,91,76,30.05,30.00,29.97,10,8,0,9,3,,0.01,8,Fog-Rain,168
2013-7-29,80,72,66,72,69,65,96,87,72,30.07,30.04,30.01,10,9,2,8,4,,0.94,5,,201
2013-7-30,81,72,66,69,64,58,94,79,50,30.11,30.07,30.03,10,9,2,9,5,,0.01,2,,281
2013-7-31,81,72,63,64,62,59,90,72,52,30.14,30.10,30.08,10,10,10,10,3,,0.00,1,,241